sensor_id;sensor_type;location;lat;lon;timestamp;pressure;altitude;pressure_sealevel;temperature;humidity
43147;BME280;28752;48.266;7.402;2023-07-31T00:00:07;99508.81;;;18.56;59.74
43147;BME280;28752;48.266;7.402;2023-07-31T00:02:34;99504.38;;;18.70;59.49
43147;BME280;28752;48.266;7.402;2023-07-31T00:05:00;99501.06;;;18.68;59.08
43147;BME280;28752;48.266;7.402;2023-07-31T00:07:25;99497.34;;;18.69;58.20
43147;BME280;28752;48.266;7.402;2023-07-31T00:09:51;99505.19;;;18.70;58.38
43147;BME280;28752;48.266;7.402;2023-07-31T00:12:16;99509.72;;;18.70;59.21
43147;BME280;28752;48.266;7.402;2023-07-31T00:14:41;99517.19;;;18.46;59.91
43147;BME280;28752;48.266;7.402;2023-07-31T00:17:07;99514.47;;;18.39;60.62
43147;BME280;28752;48.266;7.402;2023-07-31T00:19:32;99509.88;;;18.33;61.04
43147;BME280;28752;48.266;7.402;2023-07-31T00:21:57;99504.84;;;18.23;60.75
43147;BME280;28752;48.266;7.402;2023-07-31T00:24:23;99512.03;;;18.44;60.54
43147;BME280;28752;48.266;7.402;2023-07-31T00:26:48;99499.28;;;18.46;60.89
43147;BME280;28752;48.266;7.402;2023-07-31T00:29:13;99500.91;;;18.19;61.04
43147;BME280;28752;48.266;7.402;2023-07-31T00:31:39;99499.16;;;18.33;61.59
43147;BME280;28752;48.266;7.402;2023-07-31T00:34:04;99493.84;;;18.40;60.92
43147;BME280;28752;48.266;7.402;2023-07-31T00:36:29;99486.16;;;18.30;61.60
43147;BME280;28752;48.266;7.402;2023-07-31T00:38:55;99500.16;;;18.25;61.57
43147;BME280;28752;48.266;7.402;2023-07-31T00:41:20;99502.72;;;18.12;61.90
43147;BME280;28752;48.266;7.402;2023-07-31T00:43:46;99493.66;;;18.13;61.74
43147;BME280;28752;48.266;7.402;2023-07-31T00:46:11;99494.66;;;18.12;62.19
43147;BME280;28752;48.266;7.402;2023-07-31T00:48:37;99492.97;;;18.04;62.61
43147;BME280;28752;48.266;7.402;2023-07-31T00:51:03;99493.00;;;18.11;62.31
43147;BME280;28752;48.266;7.402;2023-07-31T00:53:29;99492.72;;;17.99;62.38
43147;BME280;28752;48.266;7.402;2023-07-31T00:55:54;99502.84;;;18.04;62.69
43147;BME280;28752;48.266;7.402;2023-07-31T00:58:20;99490.59;;;17.94;62.81
43147;BME280;28752;48.266;7.402;2023-07-31T01:00:45;99490.34;;;17.89;63.27
43147;BME280;28752;48.266;7.402;2023-07-31T01:03:11;99489.34;;;17.90;63.90
43147;BME280;28752;48.266;7.402;2023-07-31T01:08:32;99490.69;;;17.86;62.92
43147;BME280;28752;48.266;7.402;2023-07-31T01:11:06;99486.13;;;17.80;63.68
43147;BME280;28752;48.266;7.402;2023-07-31T01:13:33;99475.66;;;17.64;63.39
43147;BME280;28752;48.266;7.402;2023-07-31T01:15:59;99482.81;;;17.78;63.21
43147;BME280;28752;48.266;7.402;2023-07-31T01:18:24;99484.22;;;17.74;63.26
43147;BME280;28752;48.266;7.402;2023-07-31T01:20:57;99484.84;;;17.76;63.33
43147;BME280;28752;48.266;7.402;2023-07-31T01:23:35;99491.66;;;17.79;62.86
43147;BME280;28752;48.266;7.402;2023-07-31T01:26:19;99483.06;;;18.05;62.12
43147;BME280;28752;48.266;7.402;2023-07-31T01:28:56;99475.72;;;18.14;61.97
43147;BME280;28752;48.266;7.402;2023-07-31T01:31:25;99470.72;;;18.04;62.26
43147;BME280;28752;48.266;7.402;2023-07-31T01:33:53;99477.78;;;17.90;62.69
43147;BME280;28752;48.266;7.402;2023-07-31T01:36:20;99473.69;;;17.72;62.95
43147;BME280;28752;48.266;7.402;2023-07-31T01:38:45;99482.66;;;17.86;62.75
43147;BME280;28752;48.266;7.402;2023-07-31T01:41:11;99469.22;;;17.80;62.38
43147;BME280;28752;48.266;7.402;2023-07-31T01:43:36;99463.41;;;17.76;62.83
43147;BME280;28752;48.266;7.402;2023-07-31T01:46:01;99466.84;;;17.70;63.47
43147;BME280;28752;48.266;7.402;2023-07-31T01:48:27;99464.88;;;17.79;63.33
43147;BME280;28752;48.266;7.402;2023-07-31T01:50:52;99466.94;;;17.76;63.67
43147;BME280;28752;48.266;7.402;2023-07-31T01:53:17;99455.41;;;17.98;62.82
43147;BME280;28752;48.266;7.402;2023-07-31T01:55:43;99462.53;;;18.12;62.42
43147;BME280;28752;48.266;7.402;2023-07-31T01:58:09;99450.41;;;17.94;63.70
43147;BME280;28752;48.266;7.402;2023-07-31T02:00:34;99456.47;;;17.82;63.96
43147;BME280;28752;48.266;7.402;2023-07-31T02:03:00;99453.28;;;17.71;63.67
43147;BME280;28752;48.266;7.402;2023-07-31T02:05:25;99456.34;;;17.68;63.86
43147;BME280;28752;48.266;7.402;2023-07-31T02:07:50;99464.19;;;17.91;63.35
43147;BME280;28752;48.266;7.402;2023-07-31T02:10:16;99452.84;;;17.89;63.89
43147;BME280;28752;48.266;7.402;2023-07-31T02:12:41;99455.25;;;17.84;63.89
43147;BME280;28752;48.266;7.402;2023-07-31T02:15:07;99446.47;;;17.90;63.81
43147;BME280;28752;48.266;7.402;2023-07-31T02:17:32;99441.38;;;17.96;63.33
43147;BME280;28752;48.266;7.402;2023-07-31T02:19:57;99446.53;;;17.97;63.80
43147;BME280;28752;48.266;7.402;2023-07-31T02:22:23;99433.28;;;17.89;63.84
43147;BME280;28752;48.266;7.402;2023-07-31T02:24:48;99424.00;;;17.91;64.10
43147;BME280;28752;48.266;7.402;2023-07-31T02:27:13;99419.91;;;17.89;63.99
43147;BME280;28752;48.266;7.402;2023-07-31T02:29:39;99421.53;;;17.90;64.34
43147;BME280;28752;48.266;7.402;2023-07-31T02:32:04;99427.25;;;17.87;64.23
43147;BME280;28752;48.266;7.402;2023-07-31T02:34:29;99443.63;;;17.92;64.37
43147;BME280;28752;48.266;7.402;2023-07-31T02:36:55;99447.34;;;17.76;64.58
43147;BME280;28752;48.266;7.402;2023-07-31T02:39:20;99445.38;;;18.06;64.54
43147;BME280;28752;48.266;7.402;2023-07-31T02:41:46;99448.69;;;18.08;64.01
43147;BME280;28752;48.266;7.402;2023-07-31T02:44:12;99447.84;;;18.08;64.30
43147;BME280;28752;48.266;7.402;2023-07-31T02:46:39;99444.88;;;17.96;63.75
43147;BME280;28752;48.266;7.402;2023-07-31T02:49:04;99440.09;;;17.91;64.33
43147;BME280;28752;48.266;7.402;2023-07-31T02:51:30;99435.97;;;17.89;64.01
43147;BME280;28752;48.266;7.402;2023-07-31T02:53:55;99439.25;;;17.91;64.08
43147;BME280;28752;48.266;7.402;2023-07-31T02:56:20;99448.00;;;18.00;63.80
43147;BME280;28752;48.266;7.402;2023-07-31T02:58:46;99436.13;;;18.09;63.77
43147;BME280;28752;48.266;7.402;2023-07-31T03:01:11;99437.78;;;18.10;63.48
43147;BME280;28752;48.266;7.402;2023-07-31T03:03:36;99444.16;;;17.87;64.27
43147;BME280;28752;48.266;7.402;2023-07-31T03:06:02;99440.78;;;17.79;64.73
43147;BME280;28752;48.266;7.402;2023-07-31T03:08:27;99431.16;;;17.63;65.71
43147;BME280;28752;48.266;7.402;2023-07-31T03:10:52;99425.91;;;17.76;65.23
43147;BME280;28752;48.266;7.402;2023-07-31T03:13:18;99431.66;;;17.73;65.34
43147;BME280;28752;48.266;7.402;2023-07-31T03:15:43;99429.06;;;17.80;65.49
43147;BME280;28752;48.266;7.402;2023-07-31T03:18:09;99429.63;;;17.75;65.38
43147;BME280;28752;48.266;7.402;2023-07-31T03:20:34;99428.75;;;17.89;64.52
43147;BME280;28752;48.266;7.402;2023-07-31T03:22:59;99424.91;;;17.77;64.88
43147;BME280;28752;48.266;7.402;2023-07-31T03:25:24;99417.94;;;18.04;63.91
43147;BME280;28752;48.266;7.402;2023-07-31T03:27:50;99424.78;;;18.07;64.68
43147;BME280;28752;48.266;7.402;2023-07-31T03:30:15;99418.84;;;18.11;64.54
43147;BME280;28752;48.266;7.402;2023-07-31T03:32:40;99429.09;;;18.08;64.32
43147;BME280;28752;48.266;7.402;2023-07-31T03:35:06;99429.56;;;18.46;62.64
43147;BME280;28752;48.266;7.402;2023-07-31T03:37:31;99435.03;;;18.32;63.33
43147;BME280;28752;48.266;7.402;2023-07-31T03:39:57;99436.66;;;18.26;63.37
43147;BME280;28752;48.266;7.402;2023-07-31T03:42:22;99434.22;;;18.03;63.64
43147;BME280;28752;48.266;7.402;2023-07-31T03:44:48;99433.38;;;17.81;64.41
43147;BME280;28752;48.266;7.402;2023-07-31T03:47:13;99435.28;;;18.08;63.61
43147;BME280;28752;48.266;7.402;2023-07-31T03:49:38;99429.47;;;18.33;63.35
43147;BME280;28752;48.266;7.402;2023-07-31T03:52:04;99429.09;;;18.08;64.34
43147;BME280;28752;48.266;7.402;2023-07-31T03:54:29;99432.09;;;18.26;63.86
43147;BME280;28752;48.266;7.402;2023-07-31T03:56:55;99440.09;;;17.91;64.64
43147;BME280;28752;48.266;7.402;2023-07-31T03:59:20;99436.69;;;18.04;63.27
43147;BME280;28752;48.266;7.402;2023-07-31T04:01:45;99440.72;;;18.22;63.66
43147;BME280;28752;48.266;7.402;2023-07-31T04:04:11;99440.09;;;17.91;64.50
43147;BME280;28752;48.266;7.402;2023-07-31T04:06:36;99440.00;;;17.85;65.17
43147;BME280;28752;48.266;7.402;2023-07-31T04:09:02;99438.66;;;17.89;65.01
43147;BME280;28752;48.266;7.402;2023-07-31T04:11:27;99438.38;;;18.05;64.70
43147;BME280;28752;48.266;7.402;2023-07-31T04:13:53;99434.31;;;18.16;64.26
43147;BME280;28752;48.266;7.402;2023-07-31T04:16:18;99442.25;;;18.03;64.77
43147;BME280;28752;48.266;7.402;2023-07-31T04:18:43;99441.13;;;17.90;65.52
43147;BME280;28752;48.266;7.402;2023-07-31T04:21:09;99436.59;;;17.91;65.54
43147;BME280;28752;48.266;7.402;2023-07-31T04:23:35;99435.97;;;17.89;65.59
43147;BME280;28752;48.266;7.402;2023-07-31T04:26:00;99438.16;;;17.85;66.33
43147;BME280;28752;48.266;7.402;2023-07-31T04:28:26;99446.09;;;18.22;65.37
43147;BME280;28752;48.266;7.402;2023-07-31T04:30:51;99448.56;;;18.52;64.07
43147;BME280;28752;48.266;7.402;2023-07-31T04:33:17;99441.69;;;18.42;63.80
43147;BME280;28752;48.266;7.402;2023-07-31T04:35:50;99443.91;;;18.32;64.44
43147;BME280;28752;48.266;7.402;2023-07-31T04:38:17;99441.69;;;18.36;63.59
43147;BME280;28752;48.266;7.402;2023-07-31T04:40:42;99439.13;;;18.27;64.40
43147;BME280;28752;48.266;7.402;2023-07-31T04:43:08;99444.75;;;18.04;65.66
43147;BME280;28752;48.266;7.402;2023-07-31T04:45:33;99451.31;;;18.02;65.50
43147;BME280;28752;48.266;7.402;2023-07-31T04:47:58;99439.78;;;18.01;65.91
43147;BME280;28752;48.266;7.402;2023-07-31T04:50:24;99446.00;;;18.08;65.82
43147;BME280;28752;48.266;7.402;2023-07-31T04:52:49;99434.84;;;18.05;65.69
43147;BME280;28752;48.266;7.402;2023-07-31T04:55:14;99442.09;;;18.11;65.72
43147;BME280;28752;48.266;7.402;2023-07-31T04:57:40;99447.94;;;17.93;65.88
43147;BME280;28752;48.266;7.402;2023-07-31T05:00:06;99442.75;;;18.13;65.30
43147;BME280;28752;48.266;7.402;2023-07-31T05:02:31;99440.69;;;18.15;65.50
43147;BME280;28752;48.266;7.402;2023-07-31T05:04:57;99432.47;;;18.17;65.64
43147;BME280;28752;48.266;7.402;2023-07-31T05:07:22;99431.84;;;18.15;65.47
43147;BME280;28752;48.266;7.402;2023-07-31T05:09:48;99436.16;;;18.16;65.46
43147;BME280;28752;48.266;7.402;2023-07-31T05:12:13;99445.06;;;18.23;65.58
43147;BME280;28752;48.266;7.402;2023-07-31T05:14:38;99441.97;;;18.19;65.15
43147;BME280;28752;48.266;7.402;2023-07-31T05:17:04;99437.03;;;18.23;65.43
43147;BME280;28752;48.266;7.402;2023-07-31T05:19:29;99440.53;;;18.23;65.52
43147;BME280;28752;48.266;7.402;2023-07-31T05:21:55;99434.84;;;18.33;65.64
43147;BME280;28752;48.266;7.402;2023-07-31T05:24:20;99427.13;;;18.23;65.43
43147;BME280;28752;48.266;7.402;2023-07-31T05:26:46;99432.59;;;18.37;65.46
43147;BME280;28752;48.266;7.402;2023-07-31T05:29:11;99419.88;;;18.45;65.41
43147;BME280;28752;48.266;7.402;2023-07-31T05:31:36;99425.44;;;18.51;65.31
43147;BME280;28752;48.266;7.402;2023-07-31T05:34:03;99418.03;;;18.88;63.19
43147;BME280;28752;48.266;7.402;2023-07-31T05:36:28;99414.34;;;18.54;65.12
43147;BME280;28752;48.266;7.402;2023-07-31T05:38:54;99412.31;;;18.62;64.96
43147;BME280;28752;48.266;7.402;2023-07-31T05:41:19;99400.94;;;19.02;63.47
43147;BME280;28752;48.266;7.402;2023-07-31T05:43:44;99395.22;;;19.12;63.02
43147;BME280;28752;48.266;7.402;2023-07-31T05:46:10;99386.44;;;18.83;63.74
43147;BME280;28752;48.266;7.402;2023-07-31T05:48:37;99386.06;;;18.93;62.87
43147;BME280;28752;48.266;7.402;2023-07-31T05:51:02;99388.78;;;18.99;62.55
43147;BME280;28752;48.266;7.402;2023-07-31T05:53:29;99389.34;;;18.88;62.65
43147;BME280;28752;48.266;7.402;2023-07-31T05:55:54;99391.94;;;19.16;62.20
43147;BME280;28752;48.266;7.402;2023-07-31T05:58:19;99380.75;;;18.99;62.75
43147;BME280;28752;48.266;7.402;2023-07-31T06:00:45;99384.25;;;19.07;62.60
43147;BME280;28752;48.266;7.402;2023-07-31T06:03:10;99387.38;;;19.10;62.20
43147;BME280;28752;48.266;7.402;2023-07-31T06:05:35;99391.50;;;19.13;62.61
43147;BME280;28752;48.266;7.402;2023-07-31T06:08:01;99393.56;;;19.17;62.72
43147;BME280;28752;48.266;7.402;2023-07-31T06:10:27;99385.97;;;19.34;62.56
43147;BME280;28752;48.266;7.402;2023-07-31T06:12:53;99372.69;;;19.06;63.05
43147;BME280;28752;48.266;7.402;2023-07-31T06:15:19;99369.03;;;19.67;61.72
43147;BME280;28752;48.266;7.402;2023-07-31T06:17:44;99380.63;;;19.75;61.44
43147;BME280;28752;48.266;7.402;2023-07-31T06:20:10;99381.03;;;19.58;62.15
43147;BME280;28752;48.266;7.402;2023-07-31T06:22:35;99383.31;;;19.75;61.93
43147;BME280;28752;48.266;7.402;2023-07-31T06:25:01;99389.75;;;19.80;61.94
43147;BME280;28752;48.266;7.402;2023-07-31T06:27:26;99389.50;;;19.75;62.37
43147;BME280;28752;48.266;7.402;2023-07-31T06:29:51;99403.41;;;19.92;62.04
43147;BME280;28752;48.266;7.402;2023-07-31T06:32:17;99411.03;;;20.02;61.41
43147;BME280;28752;48.266;7.402;2023-07-31T06:34:42;99413.09;;;20.06;61.66
43147;BME280;28752;48.266;7.402;2023-07-31T06:37:07;99404.63;;;20.16;61.39
43147;BME280;28752;48.266;7.402;2023-07-31T06:39:33;99408.69;;;20.39;60.66
43147;BME280;28752;48.266;7.402;2023-07-31T06:41:58;99402.88;;;20.49;60.30
43147;BME280;28752;48.266;7.402;2023-07-31T06:44:24;99398.91;;;20.71;59.49
43147;BME280;28752;48.266;7.402;2023-07-31T06:46:49;99392.41;;;20.92;59.20
43147;BME280;28752;48.266;7.402;2023-07-31T06:49:14;99387.94;;;21.11;58.18
43147;BME280;28752;48.266;7.402;2023-07-31T06:51:40;99376.91;;;21.83;56.75
43147;BME280;28752;48.266;7.402;2023-07-31T06:54:06;99384.34;;;21.88;55.93
43147;BME280;28752;48.266;7.402;2023-07-31T06:56:31;99376.81;;;21.72;56.30
43147;BME280;28752;48.266;7.402;2023-07-31T06:58:56;99379.44;;;21.46;56.46
43147;BME280;28752;48.266;7.402;2023-07-31T07:01:22;99388.72;;;21.82;55.98
43147;BME280;28752;48.266;7.402;2023-07-31T07:03:47;99382.72;;;22.31;55.06
43147;BME280;28752;48.266;7.402;2023-07-31T07:06:18;99386.16;;;22.57;54.04
43147;BME280;28752;48.266;7.402;2023-07-31T07:08:44;99382.97;;;22.78;53.70
43147;BME280;28752;48.266;7.402;2023-07-31T07:11:09;99376.31;;;22.81;53.35
43147;BME280;28752;48.266;7.402;2023-07-31T07:13:35;99376.56;;;22.91;53.35
43147;BME280;28752;48.266;7.402;2023-07-31T07:16:00;99378.63;;;22.77;53.56
43147;BME280;28752;48.266;7.402;2023-07-31T07:18:25;99372.56;;;22.63;53.62
43147;BME280;28752;48.266;7.402;2023-07-31T07:20:52;99373.41;;;22.45;54.12
43147;BME280;28752;48.266;7.402;2023-07-31T07:23:18;99372.44;;;22.40;55.11
43147;BME280;28752;48.266;7.402;2023-07-31T07:25:45;99367.72;;;22.53;53.99
43147;BME280;28752;48.266;7.402;2023-07-31T07:28:11;99367.19;;;22.45;54.23
43147;BME280;28752;48.266;7.402;2023-07-31T07:30:37;99373.69;;;21.93;54.27
43147;BME280;28752;48.266;7.402;2023-07-31T07:33:02;99370.81;;;22.13;54.72
43147;BME280;28752;48.266;7.402;2023-07-31T07:35:28;99368.75;;;22.15;54.98
43147;BME280;28752;48.266;7.402;2023-07-31T07:37:53;99356.97;;;22.28;53.91
43147;BME280;28752;48.266;7.402;2023-07-31T07:40:19;99373.13;;;22.53;53.38
43147;BME280;28752;48.266;7.402;2023-07-31T07:42:44;99375.13;;;23.07;52.71
43147;BME280;28752;48.266;7.402;2023-07-31T07:45:10;99377.19;;;23.12;51.70
43147;BME280;28752;48.266;7.402;2023-07-31T07:47:35;99368.00;;;22.82;51.75
43147;BME280;28752;48.266;7.402;2023-07-31T07:50:00;99368.66;;;23.27;51.85
43147;BME280;28752;48.266;7.402;2023-07-31T07:52:26;99370.56;;;23.38;52.14
43147;BME280;28752;48.266;7.402;2023-07-31T07:54:51;99364.16;;;23.74;50.89
43147;BME280;28752;48.266;7.402;2023-07-31T07:57:17;99356.56;;;24.07;50.20
43147;BME280;28752;48.266;7.402;2023-07-31T07:59:42;99359.03;;;24.20;50.44
43147;BME280;28752;48.266;7.402;2023-07-31T08:02:07;99351.25;;;24.24;49.49
43147;BME280;28752;48.266;7.402;2023-07-31T08:04:33;99338.50;;;24.36;49.71
43147;BME280;28752;48.266;7.402;2023-07-31T08:06:58;99343.50;;;24.56;49.25
43147;BME280;28752;48.266;7.402;2023-07-31T08:09:23;99340.81;;;24.97;48.61
43147;BME280;28752;48.266;7.402;2023-07-31T08:11:49;99348.69;;;25.44;48.34
43147;BME280;28752;48.266;7.402;2023-07-31T08:14:14;99337.31;;;25.42;46.85
43147;BME280;28752;48.266;7.402;2023-07-31T08:16:39;99331.25;;;25.91;45.27
43147;BME280;28752;48.266;7.402;2023-07-31T08:19:05;99339.66;;;26.51;44.78
43147;BME280;28752;48.266;7.402;2023-07-31T08:21:31;99345.03;;;27.17;43.80
43147;BME280;28752;48.266;7.402;2023-07-31T08:23:56;99347.09;;;27.32;42.97
43147;BME280;28752;48.266;7.402;2023-07-31T08:26:22;99351.06;;;27.89;42.17
43147;BME280;28752;48.266;7.402;2023-07-31T08:28:47;99333.09;;;28.31;41.73
43147;BME280;28752;48.266;7.402;2023-07-31T08:31:13;99325.09;;;28.67;40.96
43147;BME280;28752;48.266;7.402;2023-07-31T08:33:39;99336.13;;;29.29;39.96
43147;BME280;28752;48.266;7.402;2023-07-31T08:36:05;99333.09;;;29.20;39.75
43147;BME280;28752;48.266;7.402;2023-07-31T08:38:30;99326.25;;;29.12;39.42
43147;BME280;28752;48.266;7.402;2023-07-31T08:40:59;99327.34;;;29.01;39.40
43147;BME280;28752;48.266;7.402;2023-07-31T08:43:26;99315.56;;;28.59;39.82
43147;BME280;28752;48.266;7.402;2023-07-31T08:45:52;99319.53;;;27.93;39.66
43147;BME280;28752;48.266;7.402;2023-07-31T08:48:17;99314.25;;;27.71;39.21
43147;BME280;28752;48.266;7.402;2023-07-31T08:50:43;99314.50;;;27.32;40.21
43147;BME280;28752;48.266;7.402;2023-07-31T08:53:09;99312.19;;;27.51;41.12
43147;BME280;28752;48.266;7.402;2023-07-31T08:55:35;99316.00;;;27.93;40.52
43147;BME280;28752;48.266;7.402;2023-07-31T08:58:03;99311.00;;;28.17;39.27
43147;BME280;28752;48.266;7.402;2023-07-31T09:00:29;99296.72;;;28.58;38.61
43147;BME280;28752;48.266;7.402;2023-07-31T09:02:56;99291.72;;;28.29;38.77
43147;BME280;28752;48.266;7.402;2023-07-31T09:05:26;99288.91;;;28.13;38.78
43147;BME280;28752;48.266;7.402;2023-07-31T09:07:51;99279.13;;;28.12;38.83
43147;BME280;28752;48.266;7.402;2023-07-31T09:10:17;99266.28;;;27.97;39.57
43147;BME280;28752;48.266;7.402;2023-07-31T09:12:42;99272.91;;;27.74;39.50
43147;BME280;28752;48.266;7.402;2023-07-31T09:15:08;99278.66;;;27.78;39.12
43147;BME280;28752;48.266;7.402;2023-07-31T09:17:34;99279.78;;;27.44;40.14
43147;BME280;28752;48.266;7.402;2023-07-31T09:22:42;99272.88;;;27.69;40.40
43147;BME280;28752;48.266;7.402;2023-07-31T09:25:22;99275.31;;;28.13;39.67
43147;BME280;28752;48.266;7.402;2023-07-31T09:30:13;99257.91;;;28.19;39.11
43147;BME280;28752;48.266;7.402;2023-07-31T09:32:38;99265.09;;;27.88;38.97
43147;BME280;28752;48.266;7.402;2023-07-31T09:35:18;99252.31;;;27.83;39.60
43147;BME280;28752;48.266;7.402;2023-07-31T09:37:48;99234.22;;;28.10;39.54
43147;BME280;28752;48.266;7.402;2023-07-31T09:40:33;99232.22;;;27.95;39.39
43147;BME280;28752;48.266;7.402;2023-07-31T09:43:01;99237.03;;;28.41;39.73
43147;BME280;28752;48.266;7.402;2023-07-31T09:45:28;99225.25;;;28.09;38.34
43147;BME280;28752;48.266;7.402;2023-07-31T09:47:53;99241.88;;;27.70;39.31
43147;BME280;28752;48.266;7.402;2023-07-31T09:50:21;99235.94;;;27.78;39.43
43147;BME280;28752;48.266;7.402;2023-07-31T09:52:47;99235.03;;;28.10;39.82
43147;BME280;28752;48.266;7.402;2023-07-31T09:55:13;99234.75;;;28.12;39.58
43147;BME280;28752;48.266;7.402;2023-07-31T09:57:46;99229.56;;;28.00;39.27
43147;BME280;28752;48.266;7.402;2023-07-31T10:00:13;99226.63;;;27.69;38.93
43147;BME280;28752;48.266;7.402;2023-07-31T10:02:40;99204.81;;;28.07;38.99
43147;BME280;28752;48.266;7.402;2023-07-31T10:05:06;99204.03;;;28.22;38.96
43147;BME280;28752;48.266;7.402;2023-07-31T10:07:34;99215.78;;;28.38;38.62
43147;BME280;28752;48.266;7.402;2023-07-31T10:10:02;99213.44;;;28.67;39.05
43147;BME280;28752;48.266;7.402;2023-07-31T10:12:29;99222.06;;;28.43;39.10
43147;BME280;28752;48.266;7.402;2023-07-31T10:14:57;99209.19;;;28.18;39.22
43147;BME280;28752;48.266;7.402;2023-07-31T10:17:23;99215.03;;;28.58;39.27
43147;BME280;28752;48.266;7.402;2023-07-31T10:19:49;99213.16;;;28.68;39.10
43147;BME280;28752;48.266;7.402;2023-07-31T10:22:15;99222.44;;;28.88;38.43
43147;BME280;28752;48.266;7.402;2023-07-31T10:24:45;99216.72;;;29.15;38.02
43147;BME280;28752;48.266;7.402;2023-07-31T10:27:11;99221.03;;;28.80;37.34
43147;BME280;28752;48.266;7.402;2023-07-31T10:29:39;99221.06;;;28.91;37.68
43147;BME280;28752;48.266;7.402;2023-07-31T10:32:10;99201.41;;;29.45;38.28
43147;BME280;28752;48.266;7.402;2023-07-31T10:34:38;99203.59;;;29.48;38.00
43147;BME280;28752;48.266;7.402;2023-07-31T10:37:30;99211.00;;;29.32;37.51
43147;BME280;28752;48.266;7.402;2023-07-31T10:40:05;99216.19;;;28.93;39.93
43147;BME280;28752;48.266;7.402;2023-07-31T10:42:36;99213.41;;;28.77;42.93
43147;BME280;28752;48.266;7.402;2023-07-31T10:45:08;99208.41;;;28.33;42.24
43147;BME280;28752;48.266;7.402;2023-07-31T10:47:45;99206.47;;;28.13;43.92
43147;BME280;28752;48.266;7.402;2023-07-31T10:50:22;99212.25;;;28.37;42.22
43147;BME280;28752;48.266;7.402;2023-07-31T10:52:54;99212.25;;;28.42;41.66
43147;BME280;28752;48.266;7.402;2023-07-31T10:55:29;99205.38;;;28.14;39.42
43147;BME280;28752;48.266;7.402;2023-07-31T10:58:13;99201.72;;;28.77;40.14
43147;BME280;28752;48.266;7.402;2023-07-31T11:00:39;99201.16;;;28.59;38.70
43147;BME280;28752;48.266;7.402;2023-07-31T11:03:10;99199.25;;;28.75;38.45
43147;BME280;28752;48.266;7.402;2023-07-31T11:08:27;99193.50;;;28.56;38.13
43147;BME280;28752;48.266;7.402;2023-07-31T11:13:46;99188.25;;;28.18;39.00
43147;BME280;28752;48.266;7.402;2023-07-31T11:16:15;99197.34;;;28.60;39.50
43147;BME280;28752;48.266;7.402;2023-07-31T11:18:41;99190.75;;;28.51;39.69
43147;BME280;28752;48.266;7.402;2023-07-31T11:21:07;99190.00;;;28.97;39.81
43147;BME280;28752;48.266;7.402;2023-07-31T11:23:33;99195.16;;;29.09;38.39
43147;BME280;28752;48.266;7.402;2023-07-31T11:25:59;99186.13;;;29.49;37.32
43147;BME280;28752;48.266;7.402;2023-07-31T11:28:31;99177.22;;;28.97;38.06
43147;BME280;28752;48.266;7.402;2023-07-31T11:30:57;99170.09;;;28.86;37.74
43147;BME280;28752;48.266;7.402;2023-07-31T11:33:22;99163.03;;;29.00;36.26
43147;BME280;28752;48.266;7.402;2023-07-31T11:35:48;99151.59;;;28.88;36.57
43147;BME280;28752;48.266;7.402;2023-07-31T11:38:28;99144.91;;;27.96;37.85
43147;BME280;28752;48.266;7.402;2023-07-31T11:40:56;99133.66;;;27.72;38.55
43147;BME280;28752;48.266;7.402;2023-07-31T11:43:21;99133.66;;;27.72;39.10
43147;BME280;28752;48.266;7.402;2023-07-31T11:45:49;99130.00;;;28.14;38.81
43147;BME280;28752;48.266;7.402;2023-07-31T11:48:22;99125.53;;;27.88;37.72
43147;BME280;28752;48.266;7.402;2023-07-31T11:50:50;99124.31;;;28.21;38.25
43147;BME280;28752;48.266;7.402;2023-07-31T11:53:17;99120.91;;;27.83;38.11
43147;BME280;28752;48.266;7.402;2023-07-31T11:55:44;99125.25;;;27.79;37.83
43147;BME280;28752;48.266;7.402;2023-07-31T11:58:09;99120.19;;;28.13;37.77
43147;BME280;28752;48.266;7.402;2023-07-31T12:00:35;99118.31;;;28.45;37.25
43147;BME280;28752;48.266;7.402;2023-07-31T12:03:01;99116.34;;;28.04;37.45
43147;BME280;28752;48.266;7.402;2023-07-31T12:05:26;99120.53;;;28.53;37.08
43147;BME280;28752;48.266;7.402;2023-07-31T12:07:52;99116.94;;;29.14;37.11
43147;BME280;28752;48.266;7.402;2023-07-31T12:10:30;99111.19;;;29.31;36.46
43147;BME280;28752;48.266;7.402;2023-07-31T12:13:22;99101.56;;;29.54;36.25
43147;BME280;28752;48.266;7.402;2023-07-31T12:15:48;99108.47;;;29.31;36.24
43147;BME280;28752;48.266;7.402;2023-07-31T12:18:14;99111.41;;;29.45;35.67
43147;BME280;28752;48.266;7.402;2023-07-31T12:20:41;99093.28;;;29.85;35.80
43147;BME280;28752;48.266;7.402;2023-07-31T12:23:14;99102.56;;;29.79;35.88
43147;BME280;28752;48.266;7.402;2023-07-31T12:25:40;99093.88;;;30.17;35.09
43147;BME280;28752;48.266;7.402;2023-07-31T12:28:07;99102.34;;;30.15;34.44
43147;BME280;28752;48.266;7.402;2023-07-31T12:30:36;99108.44;;;30.46;34.86
43147;BME280;28752;48.266;7.402;2023-07-31T12:33:07;99102.97;;;31.10;34.77
43147;BME280;28752;48.266;7.402;2023-07-31T12:35:38;99103.19;;;31.14;34.25
43147;BME280;28752;48.266;7.402;2023-07-31T12:38:04;99093.53;;;31.22;34.12
43147;BME280;28752;48.266;7.402;2023-07-31T12:40:29;99095.16;;;31.47;33.35
43147;BME280;28752;48.266;7.402;2023-07-31T12:42:54;99091.03;;;31.49;33.94
43147;BME280;28752;48.266;7.402;2023-07-31T12:45:20;99091.53;;;31.76;33.93
43147;BME280;28752;48.266;7.402;2023-07-31T12:47:46;99072.19;;;31.24;33.19
43147;BME280;28752;48.266;7.402;2023-07-31T12:50:11;99072.13;;;31.29;33.67
43147;BME280;28752;48.266;7.402;2023-07-31T12:52:37;99064.50;;;31.26;33.50
43147;BME280;28752;48.266;7.402;2023-07-31T12:55:02;99064.50;;;31.26;34.61
43147;BME280;28752;48.266;7.402;2023-07-31T12:57:27;99062.78;;;31.54;34.32
43147;BME280;28752;48.266;7.402;2023-07-31T12:59:53;99061.88;;;31.64;33.66
43147;BME280;28752;48.266;7.402;2023-07-31T13:02:18;99059.66;;;31.66;33.62
43147;BME280;28752;48.266;7.402;2023-07-31T13:04:43;99044.00;;;31.47;33.34
43147;BME280;28752;48.266;7.402;2023-07-31T13:07:09;99044.06;;;31.66;33.95
43147;BME280;28752;48.266;7.402;2023-07-31T13:09:34;99026.38;;;31.59;33.04